sensor_id;sensor_type;location;lat;lon;timestamp;temperature;humidity
9057;DHT22;4563;54.756;9.400;2022-08-19T00:01:15;22.50;69.80
9057;DHT22;4563;54.756;9.400;2022-08-19T00:03:41;22.50;69.80
9057;DHT22;4563;54.756;9.400;2022-08-19T00:06:08;22.50;69.80
9057;DHT22;4563;54.756;9.400;2022-08-19T00:08:36;22.50;69.90
9057;DHT22;4563;54.756;9.400;2022-08-19T00:11:04;22.40;69.70
9057;DHT22;4563;54.756;9.400;2022-08-19T00:13:31;22.40;69.70
9057;DHT22;4563;54.756;9.400;2022-08-19T00:15:58;22.40;69.70
9057;DHT22;4563;54.756;9.400;2022-08-19T00:18:26;22.40;69.70
9057;DHT22;4563;54.756;9.400;2022-08-19T00:20:53;22.40;69.80
9057;DHT22;4563;54.756;9.400;2022-08-19T00:23:20;22.40;69.80
9057;DHT22;4563;54.756;9.400;2022-08-19T00:25:47;22.40;69.90
9057;DHT22;4563;54.756;9.400;2022-08-19T00:28:15;22.40;69.90
9057;DHT22;4563;54.756;9.400;2022-08-19T00:30:42;22.40;70.00
9057;DHT22;4563;54.756;9.400;2022-08-19T00:33:09;22.30;70.50
9057;DHT22;4563;54.756;9.400;2022-08-19T00:35:36;22.30;69.90
9057;DHT22;4563;54.756;9.400;2022-08-19T00:38:04;22.30;69.90
9057;DHT22;4563;54.756;9.400;2022-08-19T00:40:32;22.30;69.90
9057;DHT22;4563;54.756;9.400;2022-08-19T00:42:59;22.30;70.00
9057;DHT22;4563;54.756;9.400;2022-08-19T00:45:28;22.30;69.90
9057;DHT22;4563;54.756;9.400;2022-08-19T00:47:57;22.30;70.60
9057;DHT22;4563;54.756;9.400;2022-08-19T00:50:29;22.30;69.90
9057;DHT22;4563;54.756;9.400;2022-08-19T00:52:56;22.30;69.90
9057;DHT22;4563;54.756;9.400;2022-08-19T00:55:26;22.30;70.00
9057;DHT22;4563;54.756;9.400;2022-08-19T00:58:01;22.30;70.00
9057;DHT22;4563;54.756;9.400;2022-08-19T01:00:32;22.30;69.60
9057;DHT22;4563;54.756;9.400;2022-08-19T01:03:02;22.30;70.00
9057;DHT22;4563;54.756;9.400;2022-08-19T01:05:29;22.30;69.90
9057;DHT22;4563;54.756;9.400;2022-08-19T01:07:58;22.20;69.90
9057;DHT22;4563;54.756;9.400;2022-08-19T01:10:27;22.20;70.00
9057;DHT22;4563;54.756;9.400;2022-08-19T01:12:56;22.20;69.90
9057;DHT22;4563;54.756;9.400;2022-08-19T01:15:29;22.20;69.90
9057;DHT22;4563;54.756;9.400;2022-08-19T01:18:00;22.20;69.80
9057;DHT22;4563;54.756;9.400;2022-08-19T01:20:27;22.20;69.80
9057;DHT22;4563;54.756;9.400;2022-08-19T01:22:57;22.10;69.80
9057;DHT22;4563;54.756;9.400;2022-08-19T01:25:28;22.20;69.90
9057;DHT22;4563;54.756;9.400;2022-08-19T01:27:56;22.10;69.90
9057;DHT22;4563;54.756;9.400;2022-08-19T01:30:25;22.10;69.90
9057;DHT22;4563;54.756;9.400;2022-08-19T01:32:53;22.10;70.00
9057;DHT22;4563;54.756;9.400;2022-08-19T01:35:22;22.10;70.00
9057;DHT22;4563;54.756;9.400;2022-08-19T01:37:51;22.10;70.10
9057;DHT22;4563;54.756;9.400;2022-08-19T01:40:22;22.10;70.10
9057;DHT22;4563;54.756;9.400;2022-08-19T01:42:52;22.10;70.00
9057;DHT22;4563;54.756;9.400;2022-08-19T01:45:21;22.00;70.00
9057;DHT22;4563;54.756;9.400;2022-08-19T01:47:49;22.10;70.10
9057;DHT22;4563;54.756;9.400;2022-08-19T01:50:16;22.00;70.10
9057;DHT22;4563;54.756;9.400;2022-08-19T01:52:43;22.00;70.10
9057;DHT22;4563;54.756;9.400;2022-08-19T01:55:14;22.00;70.20
9057;DHT22;4563;54.756;9.400;2022-08-19T01:57:46;22.00;70.20
9057;DHT22;4563;54.756;9.400;2022-08-19T02:00:15;22.00;70.00
9057;DHT22;4563;54.756;9.400;2022-08-19T02:02:43;21.90;70.10
9057;DHT22;4563;54.756;9.400;2022-08-19T02:05:11;21.90;70.00
9057;DHT22;4563;54.756;9.400;2022-08-19T02:07:38;21.90;70.00
9057;DHT22;4563;54.756;9.400;2022-08-19T02:10:09;22.00;70.10
9057;DHT22;4563;54.756;9.400;2022-08-19T02:12:36;21.90;70.00
9057;DHT22;4563;54.756;9.400;2022-08-19T02:15:06;21.90;70.00
9057;DHT22;4563;54.756;9.400;2022-08-19T02:17:33;21.90;70.10
9057;DHT22;4563;54.756;9.400;2022-08-19T02:20:00;21.90;70.10
9057;DHT22;4563;54.756;9.400;2022-08-19T02:22:27;21.90;70.10
9057;DHT22;4563;54.756;9.400;2022-08-19T02:24:54;21.80;70.00
9057;DHT22;4563;54.756;9.400;2022-08-19T02:27:22;21.80;70.00
9057;DHT22;4563;54.756;9.400;2022-08-19T02:29:51;21.80;70.10
9057;DHT22;4563;54.756;9.400;2022-08-19T02:32:19;21.80;70.20
9057;DHT22;4563;54.756;9.400;2022-08-19T02:34:47;21.80;70.10
9057;DHT22;4563;54.756;9.400;2022-08-19T02:37:14;21.80;70.10
9057;DHT22;4563;54.756;9.400;2022-08-19T02:39:54;21.80;70.10
9057;DHT22;4563;54.756;9.400;2022-08-19T02:42:21;21.80;70.10
9057;DHT22;4563;54.756;9.400;2022-08-19T02:44:48;21.80;70.20
9057;DHT22;4563;54.756;9.400;2022-08-19T02:47:15;21.80;70.10
9057;DHT22;4563;54.756;9.400;2022-08-19T02:49:46;21.80;70.10
9057;DHT22;4563;54.756;9.400;2022-08-19T02:52:15;21.80;70.60
9057;DHT22;4563;54.756;9.400;2022-08-19T02:54:42;21.80;70.80
9057;DHT22;4563;54.756;9.400;2022-08-19T02:57:09;21.80;70.90
9057;DHT22;4563;54.756;9.400;2022-08-19T02:59:36;21.80;71.00
9057;DHT22;4563;54.756;9.400;2022-08-19T03:02:03;21.90;71.20
9057;DHT22;4563;54.756;9.400;2022-08-19T03:04:30;21.90;71.30
9057;DHT22;4563;54.756;9.400;2022-08-19T03:06:58;21.90;71.30
9057;DHT22;4563;54.756;9.400;2022-08-19T03:09:25;21.90;71.40
9057;DHT22;4563;54.756;9.400;2022-08-19T03:11:52;21.90;71.30
9057;DHT22;4563;54.756;9.400;2022-08-19T03:14:19;21.90;71.30
9057;DHT22;4563;54.756;9.400;2022-08-19T03:16:48;21.80;71.30
9057;DHT22;4563;54.756;9.400;2022-08-19T03:19:16;21.90;71.40
9057;DHT22;4563;54.756;9.400;2022-08-19T03:21:44;21.90;71.40
9057;DHT22;4563;54.756;9.400;2022-08-19T03:24:13;21.90;71.50
9057;DHT22;4563;54.756;9.400;2022-08-19T03:26:42;21.90;71.70
9057;DHT22;4563;54.756;9.400;2022-08-19T03:29:10;21.80;71.70
9057;DHT22;4563;54.756;9.400;2022-08-19T03:31:38;21.90;71.80
9057;DHT22;4563;54.756;9.400;2022-08-19T03:34:05;21.90;71.80
9057;DHT22;4563;54.756;9.400;2022-08-19T03:36:32;21.90;71.70
9057;DHT22;4563;54.756;9.400;2022-08-19T03:39:00;21.90;71.80
9057;DHT22;4563;54.756;9.400;2022-08-19T03:41:30;21.80;71.70
9057;DHT22;4563;54.756;9.400;2022-08-19T03:43:58;21.80;71.80
9057;DHT22;4563;54.756;9.400;2022-08-19T03:46:27;21.80;71.80
9057;DHT22;4563;54.756;9.400;2022-08-19T03:48:56;21.80;71.90
9057;DHT22;4563;54.756;9.400;2022-08-19T03:51:27;21.80;72.00
9057;DHT22;4563;54.756;9.400;2022-08-19T03:53:57;21.80;71.90
9057;DHT22;4563;54.756;9.400;2022-08-19T03:56:25;21.80;71.90
9057;DHT22;4563;54.756;9.400;2022-08-19T03:58:54;21.80;72.00
9057;DHT22;4563;54.756;9.400;2022-08-19T04:01:25;21.80;72.00
9057;DHT22;4563;54.756;9.400;2022-08-19T04:03:53;21.80;72.10
9057;DHT22;4563;54.756;9.400;2022-08-19T04:06:22;21.80;72.10
9057;DHT22;4563;54.756;9.400;2022-08-19T04:08:51;21.70;72.10
9057;DHT22;4563;54.756;9.400;2022-08-19T04:11:20;21.70;72.20
9057;DHT22;4563;54.756;9.400;2022-08-19T04:13:48;21.80;72.30
9057;DHT22;4563;54.756;9.400;2022-08-19T04:16:18;21.70;72.20
9057;DHT22;4563;54.756;9.400;2022-08-19T04:18:46;21.70;72.20
9057;DHT22;4563;54.756;9.400;2022-08-19T04:21:17;21.80;72.40
9057;DHT22;4563;54.756;9.400;2022-08-19T04:23:44;21.70;72.40
9057;DHT22;4563;54.756;9.400;2022-08-19T04:26:13;21.70;72.40
9057;DHT22;4563;54.756;9.400;2022-08-19T04:28:41;21.70;72.50
9057;DHT22;4563;54.756;9.400;2022-08-19T04:31:12;21.70;72.50
9057;DHT22;4563;54.756;9.400;2022-08-19T04:33:41;21.70;72.50
9057;DHT22;4563;54.756;9.400;2022-08-19T04:36:10;21.70;72.50
9057;DHT22;4563;54.756;9.400;2022-08-19T04:38:41;21.70;72.60
9057;DHT22;4563;54.756;9.400;2022-08-19T04:41:08;21.70;72.50
9057;DHT22;4563;54.756;9.400;2022-08-19T04:43:53;21.70;72.50
9057;DHT22;4563;54.756;9.400;2022-08-19T04:46:19;21.70;72.50
9057;DHT22;4563;54.756;9.400;2022-08-19T04:48:48;21.70;72.60
9057;DHT22;4563;54.756;9.400;2022-08-19T04:51:15;21.70;72.80
9057;DHT22;4563;54.756;9.400;2022-08-19T04:53:43;21.70;72.60
9057;DHT22;4563;54.756;9.400;2022-08-19T04:56:12;21.70;72.80
9057;DHT22;4563;54.756;9.400;2022-08-19T04:58:41;21.60;72.80
9057;DHT22;4563;54.756;9.400;2022-08-19T05:01:09;21.60;72.90
9057;DHT22;4563;54.756;9.400;2022-08-19T05:03:37;21.60;73.00
9057;DHT22;4563;54.756;9.400;2022-08-19T05:06:07;21.60;72.90
9057;DHT22;4563;54.756;9.400;2022-08-19T05:08:36;21.70;73.20
9057;DHT22;4563;54.756;9.400;2022-08-19T05:11:08;21.60;73.10
9057;DHT22;4563;54.756;9.400;2022-08-19T05:13:36;21.70;73.20
9057;DHT22;4563;54.756;9.400;2022-08-19T05:16:03;21.60;73.20
9057;DHT22;4563;54.756;9.400;2022-08-19T05:18:30;21.60;73.30
9057;DHT22;4563;54.756;9.400;2022-08-19T05:21:18;21.70;73.40
9057;DHT22;4563;54.756;9.400;2022-08-19T05:24:04;21.70;73.40
9057;DHT22;4563;54.756;9.400;2022-08-19T05:26:34;21.60;74.00
9057;DHT22;4563;54.756;9.400;2022-08-19T05:29:01;21.60;73.30
9057;DHT22;4563;54.756;9.400;2022-08-19T05:31:28;21.60;73.30
9057;DHT22;4563;54.756;9.400;2022-08-19T05:33:55;21.60;73.40
9057;DHT22;4563;54.756;9.400;2022-08-19T05:36:25;21.60;73.40
9057;DHT22;4563;54.756;9.400;2022-08-19T05:38:52;21.70;73.60
9057;DHT22;4563;54.756;9.400;2022-08-19T05:41:20;21.60;73.50
9057;DHT22;4563;54.756;9.400;2022-08-19T05:43:55;21.70;73.80
9057;DHT22;4563;54.756;9.400;2022-08-19T05:46:22;21.70;73.70
9057;DHT22;4563;54.756;9.400;2022-08-19T05:48:49;21.70;73.70
9057;DHT22;4563;54.756;9.400;2022-08-19T05:51:16;21.70;73.70
9057;DHT22;4563;54.756;9.400;2022-08-19T05:53:44;21.70;73.70
9057;DHT22;4563;54.756;9.400;2022-08-19T05:56:13;21.70;73.70
9057;DHT22;4563;54.756;9.400;2022-08-19T05:58:42;21.70;73.70
9057;DHT22;4563;54.756;9.400;2022-08-19T06:01:11;21.70;73.70
9057;DHT22;4563;54.756;9.400;2022-08-19T06:03:38;21.70;73.70
9057;DHT22;4563;54.756;9.400;2022-08-19T06:06:05;21.70;73.70
9057;DHT22;4563;54.756;9.400;2022-08-19T06:08:32;21.70;73.70
9057;DHT22;4563;54.756;9.400;2022-08-19T06:11:17;21.70;73.70
9057;DHT22;4563;54.756;9.400;2022-08-19T06:13:44;21.70;73.40
9057;DHT22;4563;54.756;9.400;2022-08-19T06:16:13;21.70;73.70
9057;DHT22;4563;54.756;9.400;2022-08-19T06:18:44;21.70;73.80
9057;DHT22;4563;54.756;9.400;2022-08-19T06:21:11;21.70;73.80
9057;DHT22;4563;54.756;9.400;2022-08-19T06:23:39;21.70;73.80
9057;DHT22;4563;54.756;9.400;2022-08-19T06:26:06;21.70;73.90
9057;DHT22;4563;54.756;9.400;2022-08-19T06:28:34;21.70;73.90
9057;DHT22;4563;54.756;9.400;2022-08-19T06:31:06;21.70;74.00
9057;DHT22;4563;54.756;9.400;2022-08-19T06:33:33;21.70;73.90
9057;DHT22;4563;54.756;9.400;2022-08-19T06:36:00;21.70;73.90
9057;DHT22;4563;54.756;9.400;2022-08-19T06:38:27;21.70;74.00
9057;DHT22;4563;54.756;9.400;2022-08-19T06:41:00;21.70;74.00
9057;DHT22;4563;54.756;9.400;2022-08-19T06:43:27;21.70;73.90
9057;DHT22;4563;54.756;9.400;2022-08-19T06:46:02;21.80;74.10
9057;DHT22;4563;54.756;9.400;2022-08-19T06:48:29;21.70;74.70
9057;DHT22;4563;54.756;9.400;2022-08-19T06:50:57;21.70;74.10
9057;DHT22;4563;54.756;9.400;2022-08-19T06:53:24;21.70;74.00
9057;DHT22;4563;54.756;9.400;2022-08-19T06:55:53;21.80;74.20
9057;DHT22;4563;54.756;9.400;2022-08-19T06:58:25;21.70;74.10
9057;DHT22;4563;54.756;9.400;2022-08-19T07:00:52;21.70;74.20
9057;DHT22;4563;54.756;9.400;2022-08-19T07:03:20;21.70;74.20
9057;DHT22;4563;54.756;9.400;2022-08-19T07:05:47;21.70;74.40
9057;DHT22;4563;54.756;9.400;2022-08-19T07:08:14;21.70;74.40
9057;DHT22;4563;54.756;9.400;2022-08-19T07:10:43;21.80;74.50
9057;DHT22;4563;54.756;9.400;2022-08-19T07:13:12;21.80;74.70
9057;DHT22;4563;54.756;9.400;2022-08-19T07:15:39;21.80;74.70
9057;DHT22;4563;54.756;9.400;2022-08-19T07:18:06;21.80;74.60
9057;DHT22;4563;54.756;9.400;2022-08-19T07:20:34;21.80;74.60
9057;DHT22;4563;54.756;9.400;2022-08-19T07:23:02;21.80;74.60
9057;DHT22;4563;54.756;9.400;2022-08-19T07:25:29;21.80;74.60
9057;DHT22;4563;54.756;9.400;2022-08-19T07:27:56;21.80;74.70
9057;DHT22;4563;54.756;9.400;2022-08-19T07:30:23;21.80;74.70
9057;DHT22;4563;54.756;9.400;2022-08-19T07:32:49;21.80;74.90
9057;DHT22;4563;54.756;9.400;2022-08-19T07:35:17;21.80;74.90
9057;DHT22;4563;54.756;9.400;2022-08-19T07:37:46;21.80;75.00
9057;DHT22;4563;54.756;9.400;2022-08-19T07:40:13;21.90;75.20
9057;DHT22;4563;54.756;9.400;2022-08-19T07:42:40;21.90;75.40
9057;DHT22;4563;54.756;9.400;2022-08-19T07:45:09;21.90;75.40
9057;DHT22;4563;54.756;9.400;2022-08-19T07:47:36;21.90;75.40
9057;DHT22;4563;54.756;9.400;2022-08-19T07:50:07;21.90;75.30
9057;DHT22;4563;54.756;9.400;2022-08-19T07:52:35;21.90;75.40
9057;DHT22;4563;54.756;9.400;2022-08-19T07:55:08;22.00;75.60
9057;DHT22;4563;54.756;9.400;2022-08-19T07:57:35;22.00;75.50
9057;DHT22;4563;54.756;9.400;2022-08-19T08:00:05;22.00;75.50
9057;DHT22;4563;54.756;9.400;2022-08-19T08:02:32;22.10;75.60
9057;DHT22;4563;54.756;9.400;2022-08-19T08:04:59;22.10;75.50
9057;DHT22;4563;54.756;9.400;2022-08-19T08:07:44;22.10;75.60
9057;DHT22;4563;54.756;9.400;2022-08-19T08:10:29;22.10;75.60
9057;DHT22;4563;54.756;9.400;2022-08-19T08:12:56;22.10;75.60
9057;DHT22;4563;54.756;9.400;2022-08-19T08:15:23;22.10;75.60
9057;DHT22;4563;54.756;9.400;2022-08-19T08:17:50;22.20;75.60
9057;DHT22;4563;54.756;9.400;2022-08-19T08:20:17;22.20;75.70
9057;DHT22;4563;54.756;9.400;2022-08-19T08:22:45;22.20;75.70
9057;DHT22;4563;54.756;9.400;2022-08-19T08:25:31;22.20;75.70
9057;DHT22;4563;54.756;9.400;2022-08-19T08:27:58;22.20;75.70
9057;DHT22;4563;54.756;9.400;2022-08-19T08:30:26;22.20;75.70
9057;DHT22;4563;54.756;9.400;2022-08-19T08:32:53;22.30;75.80
9057;DHT22;4563;54.756;9.400;2022-08-19T08:35:22;22.30;75.70
9057;DHT22;4563;54.756;9.400;2022-08-19T08:37:51;22.30;75.70
9057;DHT22;4563;54.756;9.400;2022-08-19T08:40:22;22.30;75.70
9057;DHT22;4563;54.756;9.400;2022-08-19T08:42:56;22.40;75.70
9057;DHT22;4563;54.756;9.400;2022-08-19T08:45:26;22.30;75.50
9057;DHT22;4563;54.756;9.400;2022-08-19T08:47:56;22.40;75.80
9057;DHT22;4563;54.756;9.400;2022-08-19T08:50:28;22.40;76.50
9057;DHT22;4563;54.756;9.400;2022-08-19T08:52:57;22.40;75.90
9057;DHT22;4563;54.756;9.400;2022-08-19T08:55:26;22.40;75.90
9057;DHT22;4563;54.756;9.400;2022-08-19T08:57:59;22.40;75.90
9057;DHT22;4563;54.756;9.400;2022-08-19T09:00:29;22.50;75.90
9057;DHT22;4563;54.756;9.400;2022-08-19T09:02:58;22.50;76.00
9057;DHT22;4563;54.756;9.400;2022-08-19T09:05:34;22.60;76.00
9057;DHT22;4563;54.756;9.400;2022-08-19T09:08:06;22.60;75.80
9057;DHT22;4563;54.756;9.400;2022-08-19T09:10:38;22.60;75.80
9057;DHT22;4563;54.756;9.400;2022-08-19T09:13:14;22.60;75.60
9057;DHT22;4563;54.756;9.400;2022-08-19T09:15:46;22.60;75.30
9057;DHT22;4563;54.756;9.400;2022-08-19T09:18:15;22.60;75.40
9057;DHT22;4563;54.756;9.400;2022-08-19T09:20:42;22.60;75.30
9057;DHT22;4563;54.756;9.400;2022-08-19T09:23:09;22.70;75.30
9057;DHT22;4563;54.756;9.400;2022-08-19T09:25:37;22.70;75.30
9057;DHT22;4563;54.756;9.400;2022-08-19T09:28:06;22.70;75.20
9057;DHT22;4563;54.756;9.400;2022-08-19T09:30:38;22.80;75.20
9057;DHT22;4563;54.756;9.400;2022-08-19T09:33:06;22.70;75.10
9057;DHT22;4563;54.756;9.400;2022-08-19T09:35:33;22.70;75.00
9057;DHT22;4563;54.756;9.400;2022-08-19T09:38:01;22.70;74.90
9057;DHT22;4563;54.756;9.400;2022-08-19T09:40:29;22.80;75.00
9057;DHT22;4563;54.756;9.400;2022-08-19T09:42:56;22.70;75.00
9057;DHT22;4563;54.756;9.400;2022-08-19T09:45:29;22.80;75.20
9057;DHT22;4563;54.756;9.400;2022-08-19T09:47:56;22.80;75.20
9057;DHT22;4563;54.756;9.400;2022-08-19T09:50:24;22.80;75.40
9057;DHT22;4563;54.756;9.400;2022-08-19T09:52:51;22.80;75.50
9057;DHT22;4563;54.756;9.400;2022-08-19T09:55:19;22.90;75.50
9057;DHT22;4563;54.756;9.400;2022-08-19T09:57:46;22.90;75.50
9057;DHT22;4563;54.756;9.400;2022-08-19T10:00:13;22.90;75.50
9057;DHT22;4563;54.756;9.400;2022-08-19T10:02:41;22.90;75.40
9057;DHT22;4563;54.756;9.400;2022-08-19T10:05:08;23.00;75.30
9057;DHT22;4563;54.756;9.400;2022-08-19T10:07:53;23.00;75.30
9057;DHT22;4563;54.756;9.400;2022-08-19T10:10:20;23.00;75.20
9057;DHT22;4563;54.756;9.400;2022-08-19T10:12:46;23.00;75.20
9057;DHT22;4563;54.756;9.400;2022-08-19T10:15:14;23.10;75.20
9057;DHT22;4563;54.756;9.400;2022-08-19T10:17:43;23.10;75.10
9057;DHT22;4563;54.756;9.400;2022-08-19T10:20:10;23.10;75.00
9057;DHT22;4563;54.756;9.400;2022-08-19T10:22:37;23.20;74.90
9057;DHT22;4563;54.756;9.400;2022-08-19T10:25:05;23.20;74.70
9057;DHT22;4563;54.756;9.400;2022-08-19T10:27:32;23.20;74.60
9057;DHT22;4563;54.756;9.400;2022-08-19T10:29:59;23.20;74.40
9057;DHT22;4563;54.756;9.400;2022-08-19T10:32:26;23.20;74.40
9057;DHT22;4563;54.756;9.400;2022-08-19T10:34:56;23.30;74.40
9057;DHT22;4563;54.756;9.400;2022-08-19T10:37:23;23.30;74.40
9057;DHT22;4563;54.756;9.400;2022-08-19T10:39:50;23.40;74.40
9057;DHT22;4563;54.756;9.400;2022-08-19T10:42:17;23.40;74.50
9057;DHT22;4563;54.756;9.400;2022-08-19T10:44:44;23.40;74.30
9057;DHT22;4563;54.756;9.400;2022-08-19T10:47:12;23.40;74.30
9057;DHT22;4563;54.756;9.400;2022-08-19T10:49:38;23.40;74.30
9057;DHT22;4563;54.756;9.400;2022-08-19T10:52:20;23.40;74.30
9057;DHT22;4563;54.756;9.400;2022-08-19T10:55:00;23.40;74.30
9057;DHT22;4563;54.756;9.400;2022-08-19T10:57:44;23.50;74.40
9057;DHT22;4563;54.756;9.400;2022-08-19T11:00:12;23.50;74.30
9057;DHT22;4563;54.756;9.400;2022-08-19T11:02:39;23.50;74.10
9057;DHT22;4563;54.756;9.400;2022-08-19T11:05:08;23.50;74.00
9057;DHT22;4563;54.756;9.400;2022-08-19T11:07:37;23.60;74.10
9057;DHT22;4563;54.756;9.400;2022-08-19T11:10:05;23.60;74.10
9057;DHT22;4563;54.756;9.400;2022-08-19T11:12:32;23.60;73.90
9057;DHT22;4563;54.756;9.400;2022-08-19T11:14:59;23.60;73.80
9057;DHT22;4563;54.756;9.400;2022-08-19T11:17:27;23.70;73.80
9057;DHT22;4563;54.756;9.400;2022-08-19T11:19:56;23.70;73.70
9057;DHT22;4563;54.756;9.400;2022-08-19T11:22:23;23.70;73.60
9057;DHT22;4563;54.756;9.400;2022-08-19T11:24:51;23.80;73.60
9057;DHT22;4563;54.756;9.400;2022-08-19T11:27:18;23.80;73.40
9057;DHT22;4563;54.756;9.400;2022-08-19T11:29:46;23.80;73.30
9057;DHT22;4563;54.756;9.400;2022-08-19T11:32:13;23.80;73.30
9057;DHT22;4563;54.756;9.400;2022-08-19T11:34:41;23.90;74.10
9057;DHT22;4563;54.756;9.400;2022-08-19T11:37:08;23.90;73.30
9057;DHT22;4563;54.756;9.400;2022-08-19T11:39:36;23.90;73.30
9057;DHT22;4563;54.756;9.400;2022-08-19T11:42:06;24.00;73.20
9057;DHT22;4563;54.756;9.400;2022-08-19T11:44:47;24.00;73.00
9057;DHT22;4563;54.756;9.400;2022-08-19T11:47:15;24.00;72.60
9057;DHT22;4563;54.756;9.400;2022-08-19T11:49:42;24.10;72.50
9057;DHT22;4563;54.756;9.400;2022-08-19T11:52:09;24.10;72.30
9057;DHT22;4563;54.756;9.400;2022-08-19T11:54:36;24.10;72.30
9057;DHT22;4563;54.756;9.400;2022-08-19T11:57:05;24.20;72.40
9057;DHT22;4563;54.756;9.400;2022-08-19T11:59:32;24.20;72.40
9057;DHT22;4563;54.756;9.400;2022-08-19T12:01:59;24.20;72.40
9057;DHT22;4563;54.756;9.400;2022-08-19T12:04:26;24.20;72.50
9057;DHT22;4563;54.756;9.400;2022-08-19T12:06:54;24.20;72.40
9057;DHT22;4563;54.756;9.400;2022-08-19T12:09:21;24.30;72.30
9057;DHT22;4563;54.756;9.400;2022-08-19T12:11:48;24.30;72.20
9057;DHT22;4563;54.756;9.400;2022-08-19T12:14:17;24.30;72.00
9057;DHT22;4563;54.756;9.400;2022-08-19T12:16:45;24.30;72.00
9057;DHT22;4563;54.756;9.400;2022-08-19T12:19:12;24.30;72.00
9057;DHT22;4563;54.756;9.400;2022-08-19T12:21:39;24.40;71.80
9057;DHT22;4563;54.756;9.400;2022-08-19T12:24:07;24.40;71.70
9057;DHT22;4563;54.756;9.400;2022-08-19T12:26:34;24.40;71.80
9057;DHT22;4563;54.756;9.400;2022-08-19T12:29:01;24.50;71.90
9057;DHT22;4563;54.756;9.400;2022-08-19T12:31:32;24.50;71.90
9057;DHT22;4563;54.756;9.400;2022-08-19T12:33:59;24.50;71.50
9057;DHT22;4563;54.756;9.400;2022-08-19T12:36:26;24.50;71.40
9057;DHT22;4563;54.756;9.400;2022-08-19T12:38:53;24.50;71.40
9057;DHT22;4563;54.756;9.400;2022-08-19T12:41:21;24.50;71.30
9057;DHT22;4563;54.756;9.400;2022-08-19T12:43:49;24.60;71.50
9057;DHT22;4563;54.756;9.400;2022-08-19T12:46:17;24.60;71.60
9057;DHT22;4563;54.756;9.400;2022-08-19T12:48:46;24.60;71.50
9057;DHT22;4563;54.756;9.400;2022-08-19T12:51:15;24.60;71.30
9057;DHT22;4563;54.756;9.400;2022-08-19T12:53:42;24.70;71.20
9057;DHT22;4563;54.756;9.400;2022-08-19T12:56:10;24.70;70.80
9057;DHT22;4563;54.756;9.400;2022-08-19T12:58:40;24.70;70.50
9057;DHT22;4563;54.756;9.400;2022-08-19T13:01:08;24.70;70.50
9057;DHT22;4563;54.756;9.400;2022-08-19T13:03:36;24.80;70.70
9057;DHT22;4563;54.756;9.400;2022-08-19T13:06:04;24.80;70.60
9057;DHT22;4563;54.756;9.400;2022-08-19T13:08:32;24.80;70.60
9057;DHT22;4563;54.756;9.400;2022-08-19T13:11:07;24.80;70.50
9057;DHT22;4563;54.756;9.400;2022-08-19T13:13:36;24.90;70.50
9057;DHT22;4563;54.756;9.400;2022-08-19T13:16:07;24.90;70.70
9057;DHT22;4563;54.756;9.400;2022-08-19T13:18:34;24.90;70.50
9057;DHT22;4563;54.756;9.400;2022-08-19T13:21:03;24.90;70.50
9057;DHT22;4563;54.756;9.400;2022-08-19T13:23:31;24.90;70.50
9057;DHT22;4563;54.756;9.400;2022-08-19T13:26:00;25.00;70.60
9057;DHT22;4563;54.756;9.400;2022-08-19T13:28:28;25.00;70.60
9057;DHT22;4563;54.756;9.400;2022-08-19T13:31:16;25.00;70.40
9057;DHT22;4563;54.756;9.400;2022-08-19T13:34:01;25.00;70.10
9057;DHT22;4563;54.756;9.400;2022-08-19T13:36:29;25.00;70.00
9057;DHT22;4563;54.756;9.400;2022-08-19T13:38:56;25.00;69.70
9057;DHT22;4563;54.756;9.400;2022-08-19T13:41:23;25.10;69.60
9057;DHT22;4563;54.756;9.400;2022-08-19T13:43:50;25.10;69.40
9057;DHT22;4563;54.756;9.400;2022-08-19T13:46:17;25.10;69.20
9057;DHT22;4563;54.756;9.400;2022-08-19T13:48:45;25.10;69.00
9057;DHT22;4563;54.756;9.400;2022-08-19T13:51:12;25.10;69.20
9057;DHT22;4563;54.756;9.400;2022-08-19T13:53:40;25.20;69.40
9057;DHT22;4563;54.756;9.400;2022-08-19T13:56:09;25.20;69.30
9057;DHT22;4563;54.756;9.400;2022-08-19T13:58:37;25.20;69.20
9057;DHT22;4563;54.756;9.400;2022-08-19T14:01:05;25.20;69.10
9057;DHT22;4563;54.756;9.400;2022-08-19T14:03:33;25.20;69.00
9057;DHT22;4563;54.756;9.400;2022-08-19T14:06:01;25.20;68.90
9057;DHT22;4563;54.756;9.400;2022-08-19T14:08:28;25.20;68.90
9057;DHT22;4563;54.756;9.400;2022-08-19T14:10:59;25.20;68.80
9057;DHT22;4563;54.756;9.400;2022-08-19T14:13:26;25.30;68.70
9057;DHT22;4563;54.756;9.400;2022-08-19T14:15:52;25.30;68.80
9057;DHT22;4563;54.756;9.400;2022-08-19T14:18:20;25.30;68.70
9057;DHT22;4563;54.756;9.400;2022-08-19T14:20:47;25.30;68.50
9057;DHT22;4563;54.756;9.400;2022-08-19T14:23:14;25.30;68.10
9057;DHT22;4563;54.756;9.400;2022-08-19T14:25:41;25.40;68.20
9057;DHT22;4563;54.756;9.400;2022-08-19T14:28:10;25.40;68.20
9057;DHT22;4563;54.756;9.400;2022-08-19T14:30:37;25.40;68.10
9057;DHT22;4563;54.756;9.400;2022-08-19T14:33:05;25.40;68.20
9057;DHT22;4563;54.756;9.400;2022-08-19T14:35:33;25.40;68.50
9057;DHT22;4563;54.756;9.400;2022-08-19T14:38:01;25.30;68.70
9057;DHT22;4563;54.756;9.400;2022-08-19T14:40:29;25.40;68.70
9057;DHT22;4563;54.756;9.400;2022-08-19T14:42:58;25.40;68.40
9057;DHT22;4563;54.756;9.400;2022-08-19T14:45:28;25.40;68.40
9057;DHT22;4563;54.756;9.400;2022-08-19T14:47:56;25.40;68.30
9057;DHT22;4563;54.756;9.400;2022-08-19T14:50:25;25.50;67.70
9057;DHT22;4563;54.756;9.400;2022-08-19T14:52:58;25.50;67.30
9057;DHT22;4563;54.756;9.400;2022-08-19T14:55:25;25.50;67.60
9057;DHT22;4563;54.756;9.400;2022-08-19T14:57:52;25.50;67.60
9057;DHT22;4563;54.756;9.400;2022-08-19T15:00:19;25.50;67.50
9057;DHT22;4563;54.756;9.400;2022-08-19T15:02:47;25.60;67.70
9057;DHT22;4563;54.756;9.400;2022-08-19T15:05:14;25.60;67.50
9057;DHT22;4563;54.756;9.400;2022-08-19T15:07:42;25.60;67.10
9057;DHT22;4563;54.756;9.400;2022-08-19T15:10:11;25.60;66.90
9057;DHT22;4563;54.756;9.400;2022-08-19T15:12:39;25.60;67.30
9057;DHT22;4563;54.756;9.400;2022-08-19T15:15:07;25.60;67.20
9057;DHT22;4563;54.756;9.400;2022-08-19T15:17:38;25.60;66.90
9057;DHT22;4563;54.756;9.400;2022-08-19T15:20:09;25.70;67.00
9057;DHT22;4563;54.756;9.400;2022-08-19T15:22:36;25.70;67.00
9057;DHT22;4563;54.756;9.400;2022-08-19T15:25:05;25.60;66.90
9057;DHT22;4563;54.756;9.400;2022-08-19T15:27:33;25.70;67.00
9057;DHT22;4563;54.756;9.400;2022-08-19T15:30:00;25.70;66.90
9057;DHT22;4563;54.756;9.400;2022-08-19T15:32:27;25.70;67.00
9057;DHT22;4563;54.756;9.400;2022-08-19T15:34:55;25.70;66.90
9057;DHT22;4563;54.756;9.400;2022-08-19T15:37:24;25.70;66.60
9057;DHT22;4563;54.756;9.400;2022-08-19T15:39:51;25.70;66.80
9057;DHT22;4563;54.756;9.400;2022-08-19T15:42:18;25.70;66.90
9057;DHT22;4563;54.756;9.400;2022-08-19T15:44:45;25.70;67.20
9057;DHT22;4563;54.756;9.400;2022-08-19T15:47:13;25.70;67.10
9057;DHT22;4563;54.756;9.400;2022-08-19T15:49:40;25.70;66.90
9057;DHT22;4563;54.756;9.400;2022-08-19T15:52:07;25.70;67.40
9057;DHT22;4563;54.756;9.400;2022-08-19T15:54:35;25.70;67.40
9057;DHT22;4563;54.756;9.400;2022-08-19T15:57:03;25.70;66.80
9057;DHT22;4563;54.756;9.400;2022-08-19T15:59:47;25.70;67.00
9057;DHT22;4563;54.756;9.400;2022-08-19T16:02:33;25.70;67.00
9057;DHT22;4563;54.756;9.400;2022-08-19T16:05:20;25.70;67.00
9057;DHT22;4563;54.756;9.400;2022-08-19T16:08:11;25.70;67.00
9057;DHT22;4563;54.756;9.400;2022-08-19T16:10:39;25.70;67.10
9057;DHT22;4563;54.756;9.400;2022-08-19T16:13:06;25.70;67.10